メインページ
METAR-TAF:

METAR-TAF

空港 :

ヒューストン, テキサス州, アメリカ合衆国

ジョージ・ブッシュ・インターコンチネンタル空港

緯度: 29-59-33N, 経度: 095-21-50W, 海抜: 29m

現時点の気象観測

当レポートは1時間6分前の10:53(UTC)に作成
の風 13kt、最大21ktの突風を伴う
気温 13°C
湿度 62%
気圧 1018 hPa
視程: 16.1km
高度9500ftの千切れ雲あり

METAR: KIAH 231053Z 35013G21KT 10SM BKN095 13/06 A3007 RMK AO2 SLP183 T01280056

時間: 06:59 (11:59 UTC)

予報

当レポートは39分前の11:20(UTC)に作成
予報は23日の 12時(UTC)から 24日の 18時(UTC)まで有効
北/北西の風 14kt
視程: 10km
高度10000ftの雲はほとんどない
24日の 0000時(UTC)から
の風 8kt
視程: 10km
晴天
24日の 0200時(UTC)から
変向風 3kt
視程: 10km
晴天

TAF: KIAH 231120Z 2312/2418 34014KT P6SM FEW100 FM240000 35008KT P6SM SKC FM240200 VRB03KT P6SM SKC

4,000以上の空港の気象観測と天気予報(METAR報とTAF報)

利用可能な観測所は地図上に黄色い丸と赤い丸で示す。

丸の上にカーソルを重ねると観測所名を参照できる。

次にクリックすると気象観測と天気予報を参照できる。

マップの切り替え:黒色「×」印の緑ボタンをクリックして拡大、「-」印の緑ボタンをクリックして縮小、緑色の三角印をクリックして隣りの地図に切り替え


METAR-TAF: